sensor_id;sensor_type;location;lat;lon;timestamp;P1;durP1;ratioP1;P2;durP2;ratioP2
15451;SDS011;7827;53.594;9.938;2023-07-02T00:00:23;0.60;;;0.60;;
15451;SDS011;7827;53.594;9.938;2023-07-02T00:02:51;0.60;;;0.60;;
15451;SDS011;7827;53.594;9.938;2023-07-02T00:05:20;0.60;;;0.60;;
15451;SDS011;7827;53.594;9.938;2023-07-02T00:07:48;0.60;;;0.60;;
15451;SDS011;7827;53.594;9.938;2023-07-02T00:10:16;0.60;;;0.60;;
15451;SDS011;7827;53.594;9.938;2023-07-02T00:12:45;0.60;;;0.60;;
15451;SDS011;7827;53.594;9.938;2023-07-02T00:15:13;0.50;;;0.50;;
15451;SDS011;7827;53.594;9.938;2023-07-02T00:17:43;0.60;;;0.60;;
15451;SDS011;7827;53.594;9.938;2023-07-02T00:20:11;0.60;;;0.60;;
15451;SDS011;7827;53.594;9.938;2023-07-02T00:22:43;0.70;;;0.70;;
15451;SDS011;7827;53.594;9.938;2023-07-02T00:25:12;0.60;;;0.60;;
15451;SDS011;7827;53.594;9.938;2023-07-02T00:27:41;0.60;;;0.60;;
15451;SDS011;7827;53.594;9.938;2023-07-02T00:30:10;0.60;;;0.60;;
15451;SDS011;7827;53.594;9.938;2023-07-02T00:32:39;0.60;;;0.60;;
15451;SDS011;7827;53.594;9.938;2023-07-02T00:35:09;0.60;;;0.60;;
15451;SDS011;7827;53.594;9.938;2023-07-02T00:37:37;0.60;;;0.60;;
15451;SDS011;7827;53.594;9.938;2023-07-02T00:40:06;0.60;;;0.60;;
15451;SDS011;7827;53.594;9.938;2023-07-02T00:42:35;0.60;;;0.60;;
15451;SDS011;7827;53.594;9.938;2023-07-02T00:45:04;0.55;;;0.55;;
15451;SDS011;7827;53.594;9.938;2023-07-02T00:47:34;0.60;;;0.60;;
15451;SDS011;7827;53.594;9.938;2023-07-02T00:50:03;0.60;;;0.60;;
15451;SDS011;7827;53.594;9.938;2023-07-02T00:52:37;0.60;;;0.60;;
15451;SDS011;7827;53.594;9.938;2023-07-02T00:55:06;0.60;;;0.60;;
15451;SDS011;7827;53.594;9.938;2023-07-02T00:57:35;0.60;;;0.60;;
15451;SDS011;7827;53.594;9.938;2023-07-02T01:00:04;0.60;;;0.60;;
15451;SDS011;7827;53.594;9.938;2023-07-02T01:02:34;0.52;;;0.52;;
15451;SDS011;7827;53.594;9.938;2023-07-02T01:05:03;0.50;;;0.50;;
15451;SDS011;7827;53.594;9.938;2023-07-02T01:07:33;0.60;;;0.60;;
15451;SDS011;7827;53.594;9.938;2023-07-02T01:10:02;0.60;;;0.60;;
15451;SDS011;7827;53.594;9.938;2023-07-02T01:12:32;0.60;;;0.60;;
15451;SDS011;7827;53.594;9.938;2023-07-02T01:15:02;0.60;;;0.60;;
15451;SDS011;7827;53.594;9.938;2023-07-02T01:17:33;0.60;;;0.60;;
15451;SDS011;7827;53.594;9.938;2023-07-02T01:20:10;0.50;;;0.50;;
15451;SDS011;7827;53.594;9.938;2023-07-02T01:22:40;0.60;;;0.60;;
15451;SDS011;7827;53.594;9.938;2023-07-02T01:25:09;0.60;;;0.60;;
15451;SDS011;7827;53.594;9.938;2023-07-02T01:27:37;0.60;;;0.60;;
15451;SDS011;7827;53.594;9.938;2023-07-02T01:30:07;0.60;;;0.60;;
15451;SDS011;7827;53.594;9.938;2023-07-02T01:32:37;0.60;;;0.60;;
15451;SDS011;7827;53.594;9.938;2023-07-02T01:35:06;0.57;;;0.57;;
15451;SDS011;7827;53.594;9.938;2023-07-02T01:37:37;0.50;;;0.50;;
15451;SDS011;7827;53.594;9.938;2023-07-02T01:40:06;0.60;;;0.60;;
15451;SDS011;7827;53.594;9.938;2023-07-02T01:42:36;0.60;;;0.60;;
15451;SDS011;7827;53.594;9.938;2023-07-02T01:45:06;0.60;;;0.60;;
15451;SDS011;7827;53.594;9.938;2023-07-02T01:47:35;0.60;;;0.60;;
15451;SDS011;7827;53.594;9.938;2023-07-02T01:50:04;0.52;;;0.52;;
15451;SDS011;7827;53.594;9.938;2023-07-02T01:52:38;0.60;;;0.60;;
15451;SDS011;7827;53.594;9.938;2023-07-02T01:55:06;0.60;;;0.60;;
15451;SDS011;7827;53.594;9.938;2023-07-02T01:57:35;0.60;;;0.60;;
15451;SDS011;7827;53.594;9.938;2023-07-02T02:00:04;0.50;;;0.50;;
15451;SDS011;7827;53.594;9.938;2023-07-02T02:02:42;0.60;;;0.60;;
15451;SDS011;7827;53.594;9.938;2023-07-02T02:05:12;0.60;;;0.60;;
15451;SDS011;7827;53.594;9.938;2023-07-02T02:07:40;0.60;;;0.60;;
15451;SDS011;7827;53.594;9.938;2023-07-02T02:10:09;0.60;;;0.60;;
15451;SDS011;7827;53.594;9.938;2023-07-02T02:12:38;0.50;;;0.50;;
15451;SDS011;7827;53.594;9.938;2023-07-02T02:15:06;0.60;;;0.60;;
15451;SDS011;7827;53.594;9.938;2023-07-02T02:17:35;0.57;;;0.57;;
15451;SDS011;7827;53.594;9.938;2023-07-02T02:20:04;0.60;;;0.60;;
15451;SDS011;7827;53.594;9.938;2023-07-02T02:22:36;0.60;;;0.60;;
15451;SDS011;7827;53.594;9.938;2023-07-02T02:25:05;0.50;;;0.50;;
15451;SDS011;7827;53.594;9.938;2023-07-02T02:27:34;0.60;;;0.60;;
15451;SDS011;7827;53.594;9.938;2023-07-02T02:30:03;0.60;;;0.60;;
15451;SDS011;7827;53.594;9.938;2023-07-02T02:32:35;0.60;;;0.60;;
15451;SDS011;7827;53.594;9.938;2023-07-02T02:35:07;0.50;;;0.50;;
15451;SDS011;7827;53.594;9.938;2023-07-02T02:37:39;0.60;;;0.60;;
15451;SDS011;7827;53.594;9.938;2023-07-02T02:40:08;0.55;;;0.55;;
15451;SDS011;7827;53.594;9.938;2023-07-02T02:42:39;0.60;;;0.60;;
15451;SDS011;7827;53.594;9.938;2023-07-02T02:45:08;0.60;;;0.60;;
15451;SDS011;7827;53.594;9.938;2023-07-02T02:47:37;0.60;;;0.60;;
15451;SDS011;7827;53.594;9.938;2023-07-02T02:50:06;0.60;;;0.60;;
15451;SDS011;7827;53.594;9.938;2023-07-02T02:52:36;0.60;;;0.60;;
15451;SDS011;7827;53.594;9.938;2023-07-02T02:55:07;0.60;;;0.60;;
15451;SDS011;7827;53.594;9.938;2023-07-02T02:57:38;0.60;;;0.60;;
15451;SDS011;7827;53.594;9.938;2023-07-02T03:00:07;0.60;;;0.60;;
15451;SDS011;7827;53.594;9.938;2023-07-02T03:02:37;0.60;;;0.60;;
15451;SDS011;7827;53.594;9.938;2023-07-02T03:05:06;0.60;;;0.60;;
15451;SDS011;7827;53.594;9.938;2023-07-02T03:07:35;0.60;;;0.60;;
15451;SDS011;7827;53.594;9.938;2023-07-02T03:10:08;0.60;;;0.60;;
15451;SDS011;7827;53.594;9.938;2023-07-02T03:12:37;0.60;;;0.60;;
15451;SDS011;7827;53.594;9.938;2023-07-02T03:15:06;0.60;;;0.60;;
15451;SDS011;7827;53.594;9.938;2023-07-02T03:17:35;0.60;;;0.60;;
15451;SDS011;7827;53.594;9.938;2023-07-02T03:20:05;0.60;;;0.60;;
15451;SDS011;7827;53.594;9.938;2023-07-02T03:22:35;0.57;;;0.57;;
15451;SDS011;7827;53.594;9.938;2023-07-02T03:25:03;0.60;;;0.60;;
15451;SDS011;7827;53.594;9.938;2023-07-02T03:27:34;0.60;;;0.60;;
15451;SDS011;7827;53.594;9.938;2023-07-02T03:30:02;0.60;;;0.60;;
15451;SDS011;7827;53.594;9.938;2023-07-02T03:32:33;0.60;;;0.60;;
15451;SDS011;7827;53.594;9.938;2023-07-02T03:35:02;0.60;;;0.60;;
15451;SDS011;7827;53.594;9.938;2023-07-02T03:37:31;0.60;;;0.60;;
15451;SDS011;7827;53.594;9.938;2023-07-02T03:39:59;0.60;;;0.60;;
15451;SDS011;7827;53.594;9.938;2023-07-02T03:42:28;0.60;;;0.60;;
15451;SDS011;7827;53.594;9.938;2023-07-02T03:44:57;0.50;;;0.50;;
15451;SDS011;7827;53.594;9.938;2023-07-02T03:47:25;0.60;;;0.60;;
15451;SDS011;7827;53.594;9.938;2023-07-02T03:49:53;0.60;;;0.60;;
15451;SDS011;7827;53.594;9.938;2023-07-02T03:52:22;0.60;;;0.60;;
15451;SDS011;7827;53.594;9.938;2023-07-02T03:54:50;0.60;;;0.60;;
15451;SDS011;7827;53.594;9.938;2023-07-02T03:57:18;0.60;;;0.60;;
15451;SDS011;7827;53.594;9.938;2023-07-02T03:59:48;0.60;;;0.60;;
15451;SDS011;7827;53.594;9.938;2023-07-02T04:02:16;0.60;;;0.60;;
15451;SDS011;7827;53.594;9.938;2023-07-02T04:04:45;0.60;;;0.60;;
15451;SDS011;7827;53.594;9.938;2023-07-02T04:07:13;0.60;;;0.60;;
15451;SDS011;7827;53.594;9.938;2023-07-02T04:09:42;0.60;;;0.60;;
15451;SDS011;7827;53.594;9.938;2023-07-02T04:12:10;0.55;;;0.55;;
15451;SDS011;7827;53.594;9.938;2023-07-02T04:14:38;0.60;;;0.60;;
15451;SDS011;7827;53.594;9.938;2023-07-02T04:17:08;0.50;;;0.50;;
15451;SDS011;7827;53.594;9.938;2023-07-02T04:19:36;0.60;;;0.60;;
15451;SDS011;7827;53.594;9.938;2023-07-02T04:22:05;0.57;;;0.57;;
15451;SDS011;7827;53.594;9.938;2023-07-02T04:24:34;0.50;;;0.50;;
15451;SDS011;7827;53.594;9.938;2023-07-02T04:27:03;0.50;;;0.50;;
15451;SDS011;7827;53.594;9.938;2023-07-02T04:29:52;0.50;;;0.50;;
15451;SDS011;7827;53.594;9.938;2023-07-02T04:32:23;0.50;;;0.50;;
15451;SDS011;7827;53.594;9.938;2023-07-02T04:34:52;0.60;;;0.60;;
15451;SDS011;7827;53.594;9.938;2023-07-02T04:37:20;0.40;;;0.40;;
15451;SDS011;7827;53.594;9.938;2023-07-02T04:39:49;0.50;;;0.50;;
15451;SDS011;7827;53.594;9.938;2023-07-02T04:42:17;0.50;;;0.50;;
15451;SDS011;7827;53.594;9.938;2023-07-02T04:44:46;0.60;;;0.60;;
15451;SDS011;7827;53.594;9.938;2023-07-02T04:47:14;0.50;;;0.50;;
15451;SDS011;7827;53.594;9.938;2023-07-02T04:49:44;0.50;;;0.50;;
15451;SDS011;7827;53.594;9.938;2023-07-02T04:52:13;0.50;;;0.50;;
15451;SDS011;7827;53.594;9.938;2023-07-02T04:54:41;0.52;;;0.52;;
15451;SDS011;7827;53.594;9.938;2023-07-02T04:57:09;0.50;;;0.50;;
15451;SDS011;7827;53.594;9.938;2023-07-02T04:59:40;0.50;;;0.50;;
15451;SDS011;7827;53.594;9.938;2023-07-02T05:02:09;0.55;;;0.55;;
15451;SDS011;7827;53.594;9.938;2023-07-02T05:04:38;0.50;;;0.50;;
15451;SDS011;7827;53.594;9.938;2023-07-02T05:07:07;0.50;;;0.50;;
15451;SDS011;7827;53.594;9.938;2023-07-02T05:09:36;0.60;;;0.60;;
15451;SDS011;7827;53.594;9.938;2023-07-02T05:12:04;0.50;;;0.50;;
15451;SDS011;7827;53.594;9.938;2023-07-02T05:14:37;0.50;;;0.50;;
15451;SDS011;7827;53.594;9.938;2023-07-02T05:17:05;0.50;;;0.50;;
15451;SDS011;7827;53.594;9.938;2023-07-02T05:19:33;0.50;;;0.50;;
15451;SDS011;7827;53.594;9.938;2023-07-02T05:22:02;0.60;;;0.60;;
15451;SDS011;7827;53.594;9.938;2023-07-02T05:24:32;0.50;;;0.50;;
15451;SDS011;7827;53.594;9.938;2023-07-02T05:27:00;0.50;;;0.50;;
15451;SDS011;7827;53.594;9.938;2023-07-02T05:29:29;0.50;;;0.50;;
15451;SDS011;7827;53.594;9.938;2023-07-02T05:31:57;0.50;;;0.50;;
15451;SDS011;7827;53.594;9.938;2023-07-02T05:34:25;0.60;;;0.60;;
15451;SDS011;7827;53.594;9.938;2023-07-02T05:36:54;0.60;;;0.60;;
15451;SDS011;7827;53.594;9.938;2023-07-02T05:39:22;0.50;;;0.50;;
15451;SDS011;7827;53.594;9.938;2023-07-02T05:41:52;0.50;;;0.50;;
15451;SDS011;7827;53.594;9.938;2023-07-02T05:44:20;0.57;;;0.57;;
15451;SDS011;7827;53.594;9.938;2023-07-02T05:46:49;0.50;;;0.50;;
15451;SDS011;7827;53.594;9.938;2023-07-02T05:49:17;0.50;;;0.50;;
15451;SDS011;7827;53.594;9.938;2023-07-02T05:51:45;0.50;;;0.50;;
15451;SDS011;7827;53.594;9.938;2023-07-02T05:54:14;0.50;;;0.50;;
15451;SDS011;7827;53.594;9.938;2023-07-02T05:56:42;0.60;;;0.60;;
15451;SDS011;7827;53.594;9.938;2023-07-02T05:59:12;0.60;;;0.60;;
15451;SDS011;7827;53.594;9.938;2023-07-02T06:01:44;0.60;;;0.60;;
15451;SDS011;7827;53.594;9.938;2023-07-02T06:04:12;0.60;;;0.60;;
15451;SDS011;7827;53.594;9.938;2023-07-02T06:06:41;0.60;;;0.60;;
15451;SDS011;7827;53.594;9.938;2023-07-02T06:09:09;0.50;;;0.50;;
15451;SDS011;7827;53.594;9.938;2023-07-02T06:11:37;0.60;;;0.60;;
15451;SDS011;7827;53.594;9.938;2023-07-02T06:14:06;0.50;;;0.50;;
15451;SDS011;7827;53.594;9.938;2023-07-02T06:16:35;0.50;;;0.50;;
15451;SDS011;7827;53.594;9.938;2023-07-02T06:19:04;0.60;;;0.60;;
15451;SDS011;7827;53.594;9.938;2023-07-02T06:21:32;0.50;;;0.50;;
15451;SDS011;7827;53.594;9.938;2023-07-02T06:24:00;0.50;;;0.50;;
15451;SDS011;7827;53.594;9.938;2023-07-02T06:26:29;0.50;;;0.50;;
15451;SDS011;7827;53.594;9.938;2023-07-02T06:28:58;0.50;;;0.50;;
15451;SDS011;7827;53.594;9.938;2023-07-02T06:31:27;0.50;;;0.50;;
15451;SDS011;7827;53.594;9.938;2023-07-02T06:33:57;0.50;;;0.50;;
15451;SDS011;7827;53.594;9.938;2023-07-02T06:36:26;0.50;;;0.50;;
15451;SDS011;7827;53.594;9.938;2023-07-02T06:38:54;0.50;;;0.50;;
15451;SDS011;7827;53.594;9.938;2023-07-02T06:41:22;0.50;;;0.50;;
15451;SDS011;7827;53.594;9.938;2023-07-02T06:43:51;0.50;;;0.50;;
15451;SDS011;7827;53.594;9.938;2023-07-02T06:46:19;0.50;;;0.50;;
15451;SDS011;7827;53.594;9.938;2023-07-02T06:48:48;0.50;;;0.50;;
15451;SDS011;7827;53.594;9.938;2023-07-02T06:51:17;0.45;;;0.45;;
15451;SDS011;7827;53.594;9.938;2023-07-02T06:53:47;0.50;;;0.50;;
15451;SDS011;7827;53.594;9.938;2023-07-02T06:56:16;0.50;;;0.50;;
15451;SDS011;7827;53.594;9.938;2023-07-02T06:58:44;0.60;;;0.60;;
15451;SDS011;7827;53.594;9.938;2023-07-02T07:01:12;0.50;;;0.50;;
15451;SDS011;7827;53.594;9.938;2023-07-02T07:03:41;0.50;;;0.50;;
15451;SDS011;7827;53.594;9.938;2023-07-02T07:06:09;0.50;;;0.50;;
15451;SDS011;7827;53.594;9.938;2023-07-02T07:08:40;0.50;;;0.50;;
15451;SDS011;7827;53.594;9.938;2023-07-02T07:11:08;0.50;;;0.50;;
15451;SDS011;7827;53.594;9.938;2023-07-02T07:13:36;0.60;;;0.60;;
15451;SDS011;7827;53.594;9.938;2023-07-02T07:16:05;0.50;;;0.50;;
15451;SDS011;7827;53.594;9.938;2023-07-02T07:18:33;0.50;;;0.50;;
15451;SDS011;7827;53.594;9.938;2023-07-02T07:21:02;0.50;;;0.50;;
15451;SDS011;7827;53.594;9.938;2023-07-02T07:23:30;0.60;;;0.60;;
15451;SDS011;7827;53.594;9.938;2023-07-02T07:26:00;0.50;;;0.50;;
15451;SDS011;7827;53.594;9.938;2023-07-02T07:28:28;0.57;;;0.57;;
15451;SDS011;7827;53.594;9.938;2023-07-02T07:30:57;0.60;;;0.60;;
15451;SDS011;7827;53.594;9.938;2023-07-02T07:33:25;0.50;;;0.50;;
15451;SDS011;7827;53.594;9.938;2023-07-02T07:35:53;0.50;;;0.50;;
15451;SDS011;7827;53.594;9.938;2023-07-02T07:38:22;0.50;;;0.50;;
15451;SDS011;7827;53.594;9.938;2023-07-02T07:40:50;0.50;;;0.50;;
15451;SDS011;7827;53.594;9.938;2023-07-02T07:43:20;0.50;;;0.50;;
15451;SDS011;7827;53.594;9.938;2023-07-02T07:45:48;0.60;;;0.60;;
15451;SDS011;7827;53.594;9.938;2023-07-02T07:48:16;0.50;;;0.50;;
15451;SDS011;7827;53.594;9.938;2023-07-02T07:50:45;0.60;;;0.60;;
15451;SDS011;7827;53.594;9.938;2023-07-02T07:53:13;0.50;;;0.50;;
15451;SDS011;7827;53.594;9.938;2023-07-02T07:55:42;0.50;;;0.50;;
15451;SDS011;7827;53.594;9.938;2023-07-02T07:58:10;0.50;;;0.50;;
15451;SDS011;7827;53.594;9.938;2023-07-02T08:00:40;0.50;;;0.50;;
15451;SDS011;7827;53.594;9.938;2023-07-02T08:03:09;0.50;;;0.50;;
15451;SDS011;7827;53.594;9.938;2023-07-02T08:05:38;0.50;;;0.50;;
15451;SDS011;7827;53.594;9.938;2023-07-02T08:08:06;0.50;;;0.50;;
15451;SDS011;7827;53.594;9.938;2023-07-02T08:10:35;0.50;;;0.50;;
15451;SDS011;7827;53.594;9.938;2023-07-02T08:13:03;0.50;;;0.50;;
15451;SDS011;7827;53.594;9.938;2023-07-02T08:15:32;0.50;;;0.50;;
15451;SDS011;7827;53.594;9.938;2023-07-02T08:18:01;0.40;;;0.40;;
15451;SDS011;7827;53.594;9.938;2023-07-02T08:20:30;0.50;;;0.50;;
15451;SDS011;7827;53.594;9.938;2023-07-02T08:22:58;0.50;;;0.50;;
15451;SDS011;7827;53.594;9.938;2023-07-02T08:25:27;0.45;;;0.45;;
15451;SDS011;7827;53.594;9.938;2023-07-02T08:27:55;0.50;;;0.50;;
15451;SDS011;7827;53.594;9.938;2023-07-02T08:30:24;0.50;;;0.50;;
15451;SDS011;7827;53.594;9.938;2023-07-02T08:32:53;0.50;;;0.50;;
15451;SDS011;7827;53.594;9.938;2023-07-02T08:35:23;0.43;;;0.43;;
15451;SDS011;7827;53.594;9.938;2023-07-02T08:37:52;0.50;;;0.50;;
15451;SDS011;7827;53.594;9.938;2023-07-02T08:40:20;0.50;;;0.50;;
15451;SDS011;7827;53.594;9.938;2023-07-02T08:42:48;0.52;;;0.52;;
15451;SDS011;7827;53.594;9.938;2023-07-02T08:45:17;0.50;;;0.50;;
15451;SDS011;7827;53.594;9.938;2023-07-02T08:47:47;0.50;;;0.50;;
15451;SDS011;7827;53.594;9.938;2023-07-02T08:50:17;0.60;;;0.60;;
15451;SDS011;7827;53.594;9.938;2023-07-02T08:52:47;0.50;;;0.50;;
15451;SDS011;7827;53.594;9.938;2023-07-02T08:55:16;0.50;;;0.50;;
15451;SDS011;7827;53.594;9.938;2023-07-02T08:57:47;0.50;;;0.50;;
15451;SDS011;7827;53.594;9.938;2023-07-02T09:00:19;0.50;;;0.50;;
15451;SDS011;7827;53.594;9.938;2023-07-02T09:02:50;0.40;;;0.40;;
15451;SDS011;7827;53.594;9.938;2023-07-02T09:05:18;0.50;;;0.50;;
15451;SDS011;7827;53.594;9.938;2023-07-02T09:07:48;0.50;;;0.50;;
15451;SDS011;7827;53.594;9.938;2023-07-02T09:10:27;0.40;;;0.40;;
15451;SDS011;7827;53.594;9.938;2023-07-02T09:13:03;0.40;;;0.40;;
15451;SDS011;7827;53.594;9.938;2023-07-02T09:15:36;0.40;;;0.40;;
15451;SDS011;7827;53.594;9.938;2023-07-02T09:18:18;0.50;;;0.50;;
15451;SDS011;7827;53.594;9.938;2023-07-02T09:20:49;0.50;;;0.50;;
15451;SDS011;7827;53.594;9.938;2023-07-02T09:23:20;0.57;;;0.57;;
15451;SDS011;7827;53.594;9.938;2023-07-02T09:25:49;0.50;;;0.50;;
15451;SDS011;7827;53.594;9.938;2023-07-02T09:28:18;0.52;;;0.52;;
15451;SDS011;7827;53.594;9.938;2023-07-02T09:30:50;0.60;;;0.60;;
15451;SDS011;7827;53.594;9.938;2023-07-02T09:33:23;0.50;;;0.50;;
15451;SDS011;7827;53.594;9.938;2023-07-02T09:35:52;0.50;;;0.50;;
15451;SDS011;7827;53.594;9.938;2023-07-02T09:38:23;0.60;;;0.60;;
15451;SDS011;7827;53.594;9.938;2023-07-02T09:40:53;0.60;;;0.60;;
15451;SDS011;7827;53.594;9.938;2023-07-02T09:43:23;0.60;;;0.60;;
15451;SDS011;7827;53.594;9.938;2023-07-02T09:45:54;0.60;;;0.60;;
15451;SDS011;7827;53.594;9.938;2023-07-02T09:48:24;0.60;;;0.60;;
15451;SDS011;7827;53.594;9.938;2023-07-02T09:50:55;0.50;;;0.50;;
15451;SDS011;7827;53.594;9.938;2023-07-02T09:53:29;0.60;;;0.60;;
15451;SDS011;7827;53.594;9.938;2023-07-02T09:55:57;0.60;;;0.60;;
15451;SDS011;7827;53.594;9.938;2023-07-02T09:58:26;0.50;;;0.50;;
15451;SDS011;7827;53.594;9.938;2023-07-02T10:00:58;0.50;;;0.50;;
15451;SDS011;7827;53.594;9.938;2023-07-02T10:03:29;0.50;;;0.50;;
15451;SDS011;7827;53.594;9.938;2023-07-02T10:06:02;0.50;;;0.50;;
15451;SDS011;7827;53.594;9.938;2023-07-02T10:08:34;0.50;;;0.50;;
15451;SDS011;7827;53.594;9.938;2023-07-02T10:11:06;0.43;;;0.43;;
15451;SDS011;7827;53.594;9.938;2023-07-02T10:13:39;0.50;;;0.50;;
15451;SDS011;7827;53.594;9.938;2023-07-02T10:16:08;0.50;;;0.50;;
15451;SDS011;7827;53.594;9.938;2023-07-02T10:18:36;0.50;;;0.50;;
15451;SDS011;7827;53.594;9.938;2023-07-02T10:21:14;0.50;;;0.50;;
15451;SDS011;7827;53.594;9.938;2023-07-02T10:23:45;0.50;;;0.50;;
15451;SDS011;7827;53.594;9.938;2023-07-02T10:26:14;0.50;;;0.50;;
15451;SDS011;7827;53.594;9.938;2023-07-02T10:28:55;0.57;;;0.57;;
15451;SDS011;7827;53.594;9.938;2023-07-02T10:31:24;0.40;;;0.40;;
15451;SDS011;7827;53.594;9.938;2023-07-02T10:33:54;0.50;;;0.50;;
15451;SDS011;7827;53.594;9.938;2023-07-02T10:36:23;0.50;;;0.50;;
15451;SDS011;7827;53.594;9.938;2023-07-02T10:39:00;0.50;;;0.50;;
15451;SDS011;7827;53.594;9.938;2023-07-02T10:41:31;0.52;;;0.52;;
15451;SDS011;7827;53.594;9.938;2023-07-02T10:44:06;0.60;;;0.60;;
15451;SDS011;7827;53.594;9.938;2023-07-02T10:46:42;0.50;;;0.50;;
15451;SDS011;7827;53.594;9.938;2023-07-02T10:49:11;0.50;;;0.50;;
15451;SDS011;7827;53.594;9.938;2023-07-02T10:51:40;0.50;;;0.50;;
15451;SDS011;7827;53.594;9.938;2023-07-02T10:54:10;0.50;;;0.50;;
15451;SDS011;7827;53.594;9.938;2023-07-02T10:56:38;0.50;;;0.50;;
15451;SDS011;7827;53.594;9.938;2023-07-02T10:59:10;0.50;;;0.50;;
15451;SDS011;7827;53.594;9.938;2023-07-02T11:01:38;0.40;;;0.40;;
15451;SDS011;7827;53.594;9.938;2023-07-02T11:04:06;0.52;;;0.52;;
15451;SDS011;7827;53.594;9.938;2023-07-02T11:06:36;0.50;;;0.50;;
15451;SDS011;7827;53.594;9.938;2023-07-02T11:09:14;0.40;;;0.40;;
15451;SDS011;7827;53.594;9.938;2023-07-02T11:11:51;0.50;;;0.50;;
15451;SDS011;7827;53.594;9.938;2023-07-02T11:14:28;0.60;;;0.60;;
15451;SDS011;7827;53.594;9.938;2023-07-02T11:16:59;0.50;;;0.50;;
15451;SDS011;7827;53.594;9.938;2023-07-02T11:19:32;0.50;;;0.50;;
15451;SDS011;7827;53.594;9.938;2023-07-02T11:22:00;0.40;;;0.40;;
15451;SDS011;7827;53.594;9.938;2023-07-02T11:24:32;0.50;;;0.50;;
15451;SDS011;7827;53.594;9.938;2023-07-02T11:27:02;0.43;;;0.43;;
15451;SDS011;7827;53.594;9.938;2023-07-02T11:29:33;0.50;;;0.50;;
15451;SDS011;7827;53.594;9.938;2023-07-02T11:32:05;0.50;;;0.50;;
15451;SDS011;7827;53.594;9.938;2023-07-02T11:34:36;0.40;;;0.40;;
15451;SDS011;7827;53.594;9.938;2023-07-02T11:37:05;0.50;;;0.50;;
15451;SDS011;7827;53.594;9.938;2023-07-02T11:39:35;0.40;;;0.40;;
15451;SDS011;7827;53.594;9.938;2023-07-02T11:42:04;0.40;;;0.40;;
15451;SDS011;7827;53.594;9.938;2023-07-02T11:44:33;0.50;;;0.50;;
15451;SDS011;7827;53.594;9.938;2023-07-02T11:47:01;0.50;;;0.50;;
15451;SDS011;7827;53.594;9.938;2023-07-02T11:49:32;0.50;;;0.50;;
15451;SDS011;7827;53.594;9.938;2023-07-02T11:52:00;0.40;;;0.40;;
15451;SDS011;7827;53.594;9.938;2023-07-02T11:54:28;0.50;;;0.50;;
15451;SDS011;7827;53.594;9.938;2023-07-02T11:56:59;0.40;;;0.40;;
15451;SDS011;7827;53.594;9.938;2023-07-02T11:59:27;0.50;;;0.50;;
15451;SDS011;7827;53.594;9.938;2023-07-02T12:01:55;0.50;;;0.50;;
15451;SDS011;7827;53.594;9.938;2023-07-02T12:04:24;0.40;;;0.40;;
15451;SDS011;7827;53.594;9.938;2023-07-02T12:06:52;0.50;;;0.50;;
15451;SDS011;7827;53.594;9.938;2023-07-02T12:09:20;0.45;;;0.45;;
15451;SDS011;7827;53.594;9.938;2023-07-02T12:11:49;0.50;;;0.50;;
15451;SDS011;7827;53.594;9.938;2023-07-02T12:14:19;0.55;;;0.55;;
15451;SDS011;7827;53.594;9.938;2023-07-02T12:16:47;0.50;;;0.50;;
15451;SDS011;7827;53.594;9.938;2023-07-02T12:19:15;0.50;;;0.50;;
15451;SDS011;7827;53.594;9.938;2023-07-02T12:21:44;0.50;;;0.50;;
15451;SDS011;7827;53.594;9.938;2023-07-02T12:24:12;0.50;;;0.50;;
15451;SDS011;7827;53.594;9.938;2023-07-02T12:26:41;0.40;;;0.40;;
15451;SDS011;7827;53.594;9.938;2023-07-02T12:29:10;0.40;;;0.40;;
15451;SDS011;7827;53.594;9.938;2023-07-02T12:31:40;0.40;;;0.40;;
15451;SDS011;7827;53.594;9.938;2023-07-02T12:34:08;0.40;;;0.40;;
15451;SDS011;7827;53.594;9.938;2023-07-02T12:36:37;0.40;;;0.40;;
15451;SDS011;7827;53.594;9.938;2023-07-02T12:39:05;0.50;;;0.50;;
15451;SDS011;7827;53.594;9.938;2023-07-02T12:41:33;0.40;;;0.40;;
15451;SDS011;7827;53.594;9.938;2023-07-02T12:44:02;0.50;;;0.50;;
15451;SDS011;7827;53.594;9.938;2023-07-02T12:46:30;0.47;;;0.47;;
15451;SDS011;7827;53.594;9.938;2023-07-02T12:49:00;0.50;;;0.50;;
15451;SDS011;7827;53.594;9.938;2023-07-02T12:51:28;0.40;;;0.40;;
15451;SDS011;7827;53.594;9.938;2023-07-02T12:53:57;0.40;;;0.40;;
15451;SDS011;7827;53.594;9.938;2023-07-02T12:56:25;0.50;;;0.50;;
15451;SDS011;7827;53.594;9.938;2023-07-02T12:58:53;0.40;;;0.40;;
15451;SDS011;7827;53.594;9.938;2023-07-02T13:01:22;0.40;;;0.40;;
15451;SDS011;7827;53.594;9.938;2023-07-02T13:03:51;0.40;;;0.40;;
15451;SDS011;7827;53.594;9.938;2023-07-02T13:06:20;0.50;;;0.50;;
15451;SDS011;7827;53.594;9.938;2023-07-02T13:08:49;0.30;;;0.30;;
15451;SDS011;7827;53.594;9.938;2023-07-02T13:11:17;0.47;;;0.47;;
15451;SDS011;7827;53.594;9.938;2023-07-02T13:13:46;0.40;;;0.40;;
15451;SDS011;7827;53.594;9.938;2023-07-02T13:16:14;0.40;;;0.40;;
15451;SDS011;7827;53.594;9.938;2023-07-02T13:18:42;0.40;;;0.40;;
15451;SDS011;7827;53.594;9.938;2023-07-02T13:21:11;0.40;;;0.40;;
15451;SDS011;7827;53.594;9.938;2023-07-02T13:23:40;0.35;;;0.35;;
15451;SDS011;7827;53.594;9.938;2023-07-02T13:26:09;0.40;;;0.40;;
15451;SDS011;7827;53.594;9.938;2023-07-02T13:28:37;0.40;;;0.40;;
15451;SDS011;7827;53.594;9.938;2023-07-02T13:31:05;0.40;;;0.40;;
15451;SDS011;7827;53.594;9.938;2023-07-02T13:33:35;0.40;;;0.40;;
15451;SDS011;7827;53.594;9.938;2023-07-02T13:36:04;0.40;;;0.40;;
15451;SDS011;7827;53.594;9.938;2023-07-02T13:38:33;0.40;;;0.40;;
15451;SDS011;7827;53.594;9.938;2023-07-02T13:41:03;0.40;;;0.40;;
15451;SDS011;7827;53.594;9.938;2023-07-02T13:43:32;0.40;;;0.40;;
15451;SDS011;7827;53.594;9.938;2023-07-02T13:46:00;0.40;;;0.40;;
15451;SDS011;7827;53.594;9.938;2023-07-02T13:48:30;0.40;;;0.40;;
15451;SDS011;7827;53.594;9.938;2023-07-02T13:50:58;0.50;;;0.50;;
15451;SDS011;7827;53.594;9.938;2023-07-02T13:53:26;0.40;;;0.40;;
15451;SDS011;7827;53.594;9.938;2023-07-02T13:55:55;0.40;;;0.40;;
15451;SDS011;7827;53.594;9.938;2023-07-02T13:58:25;0.40;;;0.40;;
15451;SDS011;7827;53.594;9.938;2023-07-02T14:00:57;0.40;;;0.40;;
15451;SDS011;7827;53.594;9.938;2023-07-02T14:03:26;0.40;;;0.40;;
15451;SDS011;7827;53.594;9.938;2023-07-02T14:05:54;0.50;;;0.50;;
15451;SDS011;7827;53.594;9.938;2023-07-02T14:08:23;0.50;;;0.50;;
15451;SDS011;7827;53.594;9.938;2023-07-02T14:10:51;0.40;;;0.40;;
15451;SDS011;7827;53.594;9.938;2023-07-02T14:13:19;0.40;;;0.40;;
15451;SDS011;7827;53.594;9.938;2023-07-02T14:15:48;0.40;;;0.40;;
15451;SDS011;7827;53.594;9.938;2023-07-02T14:18:19;0.40;;;0.40;;
15451;SDS011;7827;53.594;9.938;2023-07-02T14:20:48;0.40;;;0.40;;
15451;SDS011;7827;53.594;9.938;2023-07-02T14:23:16;0.40;;;0.40;;
15451;SDS011;7827;53.594;9.938;2023-07-02T14:25:44;0.50;;;0.50;;
15451;SDS011;7827;53.594;9.938;2023-07-02T14:28:13;0.40;;;0.40;;
15451;SDS011;7827;53.594;9.938;2023-07-02T14:30:41;0.40;;;0.40;;
15451;SDS011;7827;53.594;9.938;2023-07-02T14:33:10;0.40;;;0.40;;
15451;SDS011;7827;53.594;9.938;2023-07-02T14:35:39;0.40;;;0.40;;
15451;SDS011;7827;53.594;9.938;2023-07-02T14:38:08;0.40;;;0.40;;
15451;SDS011;7827;53.594;9.938;2023-07-02T14:40:36;0.40;;;0.40;;
15451;SDS011;7827;53.594;9.938;2023-07-02T14:43:05;0.40;;;0.40;;
15451;SDS011;7827;53.594;9.938;2023-07-02T14:45:33;0.40;;;0.40;;
15451;SDS011;7827;53.594;9.938;2023-07-02T14:48:02;0.40;;;0.40;;
15451;SDS011;7827;53.594;9.938;2023-07-02T14:50:30;0.50;;;0.50;;
15451;SDS011;7827;53.594;9.938;2023-07-02T14:53:00;0.40;;;0.40;;
15451;SDS011;7827;53.594;9.938;2023-07-02T14:55:28;0.40;;;0.40;;
15451;SDS011;7827;53.594;9.938;2023-07-02T14:57:57;0.40;;;0.40;;
15451;SDS011;7827;53.594;9.938;2023-07-02T15:00:25;0.40;;;0.40;;
15451;SDS011;7827;53.594;9.938;2023-07-02T15:02:53;0.40;;;0.40;;
15451;SDS011;7827;53.594;9.938;2023-07-02T15:05:22;0.40;;;0.40;;
15451;SDS011;7827;53.594;9.938;2023-07-02T15:07:51;0.40;;;0.40;;
15451;SDS011;7827;53.594;9.938;2023-07-02T15:10:20;0.40;;;0.40;;
15451;SDS011;7827;53.594;9.938;2023-07-02T15:12:49;0.40;;;0.40;;